sensor_id;sensor_type;location;lat;lon;timestamp;P1;durP1;ratioP1;P2;durP2;ratioP2
11139;SDS011;5624;49.388;11.350;2023-07-13T00:01:47;6.15;;;4.30;;
11139;SDS011;5624;49.388;11.350;2023-07-13T00:04:15;5.28;;;4.30;;
11139;SDS011;5624;49.388;11.350;2023-07-13T00:06:42;7.72;;;4.32;;
11139;SDS011;5624;49.388;11.350;2023-07-13T00:09:10;7.10;;;4.53;;
11139;SDS011;5624;49.388;11.350;2023-07-13T00:11:37;5.60;;;3.90;;
11139;SDS011;5624;49.388;11.350;2023-07-13T00:14:03;6.57;;;4.40;;
11139;SDS011;5624;49.388;11.350;2023-07-13T00:16:29;7.78;;;4.25;;
11139;SDS011;5624;49.388;11.350;2023-07-13T00:18:54;8.40;;;4.20;;
11139;SDS011;5624;49.388;11.350;2023-07-13T00:21:20;6.07;;;3.97;;
11139;SDS011;5624;49.388;11.350;2023-07-13T00:23:46;6.03;;;4.15;;
11139;SDS011;5624;49.388;11.350;2023-07-13T00:26:11;5.50;;;3.83;;
11139;SDS011;5624;49.388;11.350;2023-07-13T00:28:38;5.78;;;3.97;;
11139;SDS011;5624;49.388;11.350;2023-07-13T00:31:04;6.25;;;3.65;;
11139;SDS011;5624;49.388;11.350;2023-07-13T00:33:30;5.57;;;3.75;;
11139;SDS011;5624;49.388;11.350;2023-07-13T00:35:56;5.93;;;4.10;;
11139;SDS011;5624;49.388;11.350;2023-07-13T00:38:23;5.55;;;3.65;;
11139;SDS011;5624;49.388;11.350;2023-07-13T00:40:48;6.57;;;3.83;;
11139;SDS011;5624;49.388;11.350;2023-07-13T00:43:15;5.47;;;3.88;;
11139;SDS011;5624;49.388;11.350;2023-07-13T00:48:09;6.78;;;4.00;;
11139;SDS011;5624;49.388;11.350;2023-07-13T00:50:36;4.78;;;4.00;;
11139;SDS011;5624;49.388;11.350;2023-07-13T00:53:02;6.25;;;3.72;;
11139;SDS011;5624;49.388;11.350;2023-07-13T00:55:28;6.32;;;4.20;;
11139;SDS011;5624;49.388;11.350;2023-07-13T00:57:54;5.57;;;3.97;;
11139;SDS011;5624;49.388;11.350;2023-07-13T01:00:20;5.78;;;3.42;;
11139;SDS011;5624;49.388;11.350;2023-07-13T01:02:48;7.15;;;3.53;;
11139;SDS011;5624;49.388;11.350;2023-07-13T01:05:19;5.93;;;3.30;;
11139;SDS011;5624;49.388;11.350;2023-07-13T01:07:47;5.05;;;3.65;;
11139;SDS011;5624;49.388;11.350;2023-07-13T01:10:16;5.90;;;3.45;;
11139;SDS011;5624;49.388;11.350;2023-07-13T01:12:41;3.90;;;2.70;;
11139;SDS011;5624;49.388;11.350;2023-07-13T01:18:04;3.88;;;2.50;;
11139;SDS011;5624;49.388;11.350;2023-07-13T01:20:32;4.10;;;2.45;;
11139;SDS011;5624;49.388;11.350;2023-07-13T01:23:03;3.83;;;2.10;;
11139;SDS011;5624;49.388;11.350;2023-07-13T01:25:34;5.65;;;2.95;;
11139;SDS011;5624;49.388;11.350;2023-07-13T01:28:01;3.75;;;2.30;;
11139;SDS011;5624;49.388;11.350;2023-07-13T01:30:28;6.72;;;2.78;;
11139;SDS011;5624;49.388;11.350;2023-07-13T01:32:54;6.03;;;3.15;;
11139;SDS011;5624;49.388;11.350;2023-07-13T01:35:19;4.10;;;2.55;;
11139;SDS011;5624;49.388;11.350;2023-07-13T01:37:45;7.13;;;2.67;;
11139;SDS011;5624;49.388;11.350;2023-07-13T01:40:11;3.83;;;2.50;;
11139;SDS011;5624;49.388;11.350;2023-07-13T01:42:37;4.40;;;2.58;;
11139;SDS011;5624;49.388;11.350;2023-07-13T01:45:03;3.58;;;2.50;;
11139;SDS011;5624;49.388;11.350;2023-07-13T01:47:30;5.93;;;2.60;;
11139;SDS011;5624;49.388;11.350;2023-07-13T01:49:56;3.30;;;2.25;;
11139;SDS011;5624;49.388;11.350;2023-07-13T01:52:22;4.10;;;2.70;;
11139;SDS011;5624;49.388;11.350;2023-07-13T01:54:47;4.45;;;2.80;;
11139;SDS011;5624;49.388;11.350;2023-07-13T01:57:13;2.92;;;2.08;;
11139;SDS011;5624;49.388;11.350;2023-07-13T01:59:38;3.47;;;2.35;;
11139;SDS011;5624;49.388;11.350;2023-07-13T02:02:04;4.68;;;2.58;;
11139;SDS011;5624;49.388;11.350;2023-07-13T02:04:30;3.58;;;2.58;;
11139;SDS011;5624;49.388;11.350;2023-07-13T02:06:55;5.30;;;2.75;;
11139;SDS011;5624;49.388;11.350;2023-07-13T02:09:21;3.83;;;2.20;;
11139;SDS011;5624;49.388;11.350;2023-07-13T02:11:47;5.32;;;2.33;;
11139;SDS011;5624;49.388;11.350;2023-07-13T02:14:13;2.58;;;1.83;;
11139;SDS011;5624;49.388;11.350;2023-07-13T02:16:40;4.18;;;2.20;;
11139;SDS011;5624;49.388;11.350;2023-07-13T02:19:06;3.47;;;1.80;;
11139;SDS011;5624;49.388;11.350;2023-07-13T02:21:32;3.25;;;1.98;;
11139;SDS011;5624;49.388;11.350;2023-07-13T02:23:58;9.70;;;2.20;;
11139;SDS011;5624;49.388;11.350;2023-07-13T02:26:24;5.72;;;2.10;;
11139;SDS011;5624;49.388;11.350;2023-07-13T02:28:50;4.10;;;1.80;;
11139;SDS011;5624;49.388;11.350;2023-07-13T02:31:16;4.55;;;1.77;;
11139;SDS011;5624;49.388;11.350;2023-07-13T02:33:42;3.08;;;1.95;;
11139;SDS011;5624;49.388;11.350;2023-07-13T02:36:08;2.92;;;1.70;;
11139;SDS011;5624;49.388;11.350;2023-07-13T02:38:34;3.88;;;2.03;;
11139;SDS011;5624;49.388;11.350;2023-07-13T02:41:01;4.60;;;2.38;;
11139;SDS011;5624;49.388;11.350;2023-07-13T02:43:31;3.70;;;1.92;;
11139;SDS011;5624;49.388;11.350;2023-07-13T02:45:58;3.92;;;2.45;;
11139;SDS011;5624;49.388;11.350;2023-07-13T02:48:29;3.60;;;2.20;;
11139;SDS011;5624;49.388;11.350;2023-07-13T02:50:54;3.00;;;1.83;;
11139;SDS011;5624;49.388;11.350;2023-07-13T02:53:20;6.65;;;2.33;;
11139;SDS011;5624;49.388;11.350;2023-07-13T02:55:46;3.30;;;1.95;;
11139;SDS011;5624;49.388;11.350;2023-07-13T02:58:12;2.80;;;2.10;;
11139;SDS011;5624;49.388;11.350;2023-07-13T03:00:45;3.28;;;1.80;;
11139;SDS011;5624;49.388;11.350;2023-07-13T03:03:11;4.85;;;1.70;;
11139;SDS011;5624;49.388;11.350;2023-07-13T03:05:39;4.40;;;1.80;;
11139;SDS011;5624;49.388;11.350;2023-07-13T03:08:07;2.72;;;2.03;;
11139;SDS011;5624;49.388;11.350;2023-07-13T03:10:33;3.25;;;1.92;;
11139;SDS011;5624;49.388;11.350;2023-07-13T03:12:58;3.70;;;1.63;;
11139;SDS011;5624;49.388;11.350;2023-07-13T03:15:24;3.75;;;1.88;;
11139;SDS011;5624;49.388;11.350;2023-07-13T03:17:49;2.45;;;1.63;;
11139;SDS011;5624;49.388;11.350;2023-07-13T03:20:15;2.88;;;1.52;;
11139;SDS011;5624;49.388;11.350;2023-07-13T03:22:41;4.20;;;1.55;;
11139;SDS011;5624;49.388;11.350;2023-07-13T03:25:07;2.95;;;2.00;;
11139;SDS011;5624;49.388;11.350;2023-07-13T03:27:33;3.53;;;1.92;;
11139;SDS011;5624;49.388;11.350;2023-07-13T03:29:58;6.22;;;1.52;;
11139;SDS011;5624;49.388;11.350;2023-07-13T03:32:24;3.50;;;1.90;;
11139;SDS011;5624;49.388;11.350;2023-07-13T03:34:50;2.75;;;1.40;;
11139;SDS011;5624;49.388;11.350;2023-07-13T03:37:15;3.53;;;1.73;;
11139;SDS011;5624;49.388;11.350;2023-07-13T03:39:41;3.35;;;1.55;;
11139;SDS011;5624;49.388;11.350;2023-07-13T03:42:07;3.38;;;1.63;;
11139;SDS011;5624;49.388;11.350;2023-07-13T03:44:32;3.65;;;1.40;;
11139;SDS011;5624;49.388;11.350;2023-07-13T03:47:00;6.00;;;1.60;;
11139;SDS011;5624;49.388;11.350;2023-07-13T03:49:26;2.78;;;1.70;;
11139;SDS011;5624;49.388;11.350;2023-07-13T03:51:51;2.85;;;1.52;;
11139;SDS011;5624;49.388;11.350;2023-07-13T03:54:17;3.40;;;1.75;;
11139;SDS011;5624;49.388;11.350;2023-07-13T03:56:42;2.40;;;1.75;;
11139;SDS011;5624;49.388;11.350;2023-07-13T03:59:08;2.53;;;1.50;;
11139;SDS011;5624;49.388;11.350;2023-07-13T04:01:34;3.88;;;1.70;;
11139;SDS011;5624;49.388;11.350;2023-07-13T04:03:59;3.20;;;1.65;;
11139;SDS011;5624;49.388;11.350;2023-07-13T04:06:26;2.90;;;1.65;;
11139;SDS011;5624;49.388;11.350;2023-07-13T04:08:54;5.50;;;1.60;;
11139;SDS011;5624;49.388;11.350;2023-07-13T04:11:22;3.83;;;1.60;;
11139;SDS011;5624;49.388;11.350;2023-07-13T04:13:49;3.65;;;1.48;;
11139;SDS011;5624;49.388;11.350;2023-07-13T04:16:16;1.98;;;1.48;;
11139;SDS011;5624;49.388;11.350;2023-07-13T04:18:43;3.20;;;1.60;;
11139;SDS011;5624;49.388;11.350;2023-07-13T04:21:09;3.15;;;2.08;;
11139;SDS011;5624;49.388;11.350;2023-07-13T04:23:35;2.55;;;1.58;;
11139;SDS011;5624;49.388;11.350;2023-07-13T04:26:01;2.55;;;1.67;;
11139;SDS011;5624;49.388;11.350;2023-07-13T04:28:27;2.88;;;1.70;;
11139;SDS011;5624;49.388;11.350;2023-07-13T04:30:53;2.75;;;1.60;;
11139;SDS011;5624;49.388;11.350;2023-07-13T04:33:19;3.85;;;1.58;;
11139;SDS011;5624;49.388;11.350;2023-07-13T04:35:47;5.32;;;1.98;;
11139;SDS011;5624;49.388;11.350;2023-07-13T04:38:14;4.25;;;1.52;;
11139;SDS011;5624;49.388;11.350;2023-07-13T04:40:42;2.35;;;1.55;;
11139;SDS011;5624;49.388;11.350;2023-07-13T04:43:10;1.98;;;1.42;;
11139;SDS011;5624;49.388;11.350;2023-07-13T04:45:35;2.72;;;1.50;;
11139;SDS011;5624;49.388;11.350;2023-07-13T04:48:01;2.50;;;1.60;;
11139;SDS011;5624;49.388;11.350;2023-07-13T04:50:27;3.15;;;1.45;;
11139;SDS011;5624;49.388;11.350;2023-07-13T04:52:53;3.03;;;1.48;;
11139;SDS011;5624;49.388;11.350;2023-07-13T04:55:19;3.47;;;1.70;;
11139;SDS011;5624;49.388;11.350;2023-07-13T04:57:44;3.80;;;1.58;;
11139;SDS011;5624;49.388;11.350;2023-07-13T05:00:11;4.00;;;1.80;;
11139;SDS011;5624;49.388;11.350;2023-07-13T05:02:38;2.22;;;1.27;;
11139;SDS011;5624;49.388;11.350;2023-07-13T05:05:05;3.72;;;1.60;;
11139;SDS011;5624;49.388;11.350;2023-07-13T05:07:31;4.88;;;1.55;;
11139;SDS011;5624;49.388;11.350;2023-07-13T05:09:58;5.28;;;1.77;;
11139;SDS011;5624;49.388;11.350;2023-07-13T05:12:24;3.60;;;1.75;;
11139;SDS011;5624;49.388;11.350;2023-07-13T05:14:50;4.07;;;1.50;;
11139;SDS011;5624;49.388;11.350;2023-07-13T05:17:16;3.22;;;1.38;;
11139;SDS011;5624;49.388;11.350;2023-07-13T05:19:41;4.53;;;1.40;;
11139;SDS011;5624;49.388;11.350;2023-07-13T05:22:07;3.38;;;1.60;;
11139;SDS011;5624;49.388;11.350;2023-07-13T05:24:33;5.88;;;1.70;;
11139;SDS011;5624;49.388;11.350;2023-07-13T05:26:58;2.33;;;1.52;;
11139;SDS011;5624;49.388;11.350;2023-07-13T05:29:24;2.47;;;1.15;;
11139;SDS011;5624;49.388;11.350;2023-07-13T05:31:49;4.05;;;1.55;;
11139;SDS011;5624;49.388;11.350;2023-07-13T05:34:15;3.20;;;1.38;;
11139;SDS011;5624;49.388;11.350;2023-07-13T05:36:41;4.90;;;1.88;;
11139;SDS011;5624;49.388;11.350;2023-07-13T05:39:06;2.78;;;1.52;;
11139;SDS011;5624;49.388;11.350;2023-07-13T05:41:32;3.33;;;1.23;;
11139;SDS011;5624;49.388;11.350;2023-07-13T05:43:58;2.22;;;1.33;;
11139;SDS011;5624;49.388;11.350;2023-07-13T05:46:24;4.47;;;1.60;;
11139;SDS011;5624;49.388;11.350;2023-07-13T05:48:50;1.85;;;1.25;;
11139;SDS011;5624;49.388;11.350;2023-07-13T05:51:15;3.42;;;1.73;;
11139;SDS011;5624;49.388;11.350;2023-07-13T05:53:41;3.42;;;1.60;;
11139;SDS011;5624;49.388;11.350;2023-07-13T05:56:06;3.72;;;1.10;;
11139;SDS011;5624;49.388;11.350;2023-07-13T05:58:32;2.08;;;1.42;;
11139;SDS011;5624;49.388;11.350;2023-07-13T06:01:02;3.10;;;1.50;;
11139;SDS011;5624;49.388;11.350;2023-07-13T06:03:32;1.98;;;1.27;;
11139;SDS011;5624;49.388;11.350;2023-07-13T06:05:58;2.42;;;1.63;;
11139;SDS011;5624;49.388;11.350;2023-07-13T06:08:27;3.28;;;1.50;;
11139;SDS011;5624;49.388;11.350;2023-07-13T06:10:53;6.60;;;1.17;;
11139;SDS011;5624;49.388;11.350;2023-07-13T06:13:19;3.75;;;1.30;;
11139;SDS011;5624;49.388;11.350;2023-07-13T06:15:48;3.92;;;1.20;;
11139;SDS011;5624;49.388;11.350;2023-07-13T06:18:14;2.03;;;1.35;;
11139;SDS011;5624;49.388;11.350;2023-07-13T06:20:40;4.65;;;1.40;;
11139;SDS011;5624;49.388;11.350;2023-07-13T06:23:06;2.15;;;1.10;;
11139;SDS011;5624;49.388;11.350;2023-07-13T06:25:31;2.40;;;1.38;;
11139;SDS011;5624;49.388;11.350;2023-07-13T06:27:57;2.92;;;1.05;;
11139;SDS011;5624;49.388;11.350;2023-07-13T06:30:22;1.35;;;1.02;;
11139;SDS011;5624;49.388;11.350;2023-07-13T06:32:49;2.90;;;1.20;;
11139;SDS011;5624;49.388;11.350;2023-07-13T06:35:14;4.70;;;1.35;;
11139;SDS011;5624;49.388;11.350;2023-07-13T06:37:40;1.73;;;0.93;;
11139;SDS011;5624;49.388;11.350;2023-07-13T06:40:06;4.82;;;1.33;;
11139;SDS011;5624;49.388;11.350;2023-07-13T06:42:32;2.80;;;1.10;;
11139;SDS011;5624;49.388;11.350;2023-07-13T06:44:58;2.63;;;1.05;;
11139;SDS011;5624;49.388;11.350;2023-07-13T06:47:23;3.42;;;1.50;;
11139;SDS011;5624;49.388;11.350;2023-07-13T06:49:49;3.60;;;1.50;;
11139;SDS011;5624;49.388;11.350;2023-07-13T06:52:14;2.97;;;1.30;;
11139;SDS011;5624;49.388;11.350;2023-07-13T06:54:40;5.03;;;1.63;;
11139;SDS011;5624;49.388;11.350;2023-07-13T06:57:05;2.50;;;1.20;;
11139;SDS011;5624;49.388;11.350;2023-07-13T06:59:32;2.45;;;1.00;;
11139;SDS011;5624;49.388;11.350;2023-07-13T07:01:57;4.25;;;1.20;;
11139;SDS011;5624;49.388;11.350;2023-07-13T07:04:23;4.35;;;1.23;;
11139;SDS011;5624;49.388;11.350;2023-07-13T07:06:49;3.72;;;1.08;;
11139;SDS011;5624;49.388;11.350;2023-07-13T07:09:14;3.08;;;1.17;;
11139;SDS011;5624;49.388;11.350;2023-07-13T07:11:41;4.93;;;1.60;;
11139;SDS011;5624;49.388;11.350;2023-07-13T07:14:07;3.78;;;1.23;;
11139;SDS011;5624;49.388;11.350;2023-07-13T07:16:33;2.83;;;0.80;;
11139;SDS011;5624;49.388;11.350;2023-07-13T07:18:58;4.28;;;1.38;;
11139;SDS011;5624;49.388;11.350;2023-07-13T07:21:24;3.90;;;1.30;;
11139;SDS011;5624;49.388;11.350;2023-07-13T07:23:51;3.00;;;1.00;;
11139;SDS011;5624;49.388;11.350;2023-07-13T07:26:17;3.17;;;1.17;;
11139;SDS011;5624;49.388;11.350;2023-07-13T07:28:42;3.92;;;1.38;;
11139;SDS011;5624;49.388;11.350;2023-07-13T07:31:08;8.40;;;1.30;;
11139;SDS011;5624;49.388;11.350;2023-07-13T07:33:34;3.42;;;1.02;;
11139;SDS011;5624;49.388;11.350;2023-07-13T07:36:00;5.68;;;1.52;;
11139;SDS011;5624;49.388;11.350;2023-07-13T07:38:26;4.53;;;1.23;;
11139;SDS011;5624;49.388;11.350;2023-07-13T07:40:52;5.05;;;1.30;;
11139;SDS011;5624;49.388;11.350;2023-07-13T07:43:18;4.32;;;1.20;;
11139;SDS011;5624;49.388;11.350;2023-07-13T07:45:44;2.63;;;1.10;;
11139;SDS011;5624;49.388;11.350;2023-07-13T07:48:10;5.30;;;1.58;;
11139;SDS011;5624;49.388;11.350;2023-07-13T07:50:37;2.97;;;0.95;;
11139;SDS011;5624;49.388;11.350;2023-07-13T07:53:04;4.28;;;1.02;;
11139;SDS011;5624;49.388;11.350;2023-07-13T07:55:32;4.15;;;1.17;;
11139;SDS011;5624;49.388;11.350;2023-07-13T07:58:00;3.50;;;1.33;;
11139;SDS011;5624;49.388;11.350;2023-07-13T08:00:26;2.88;;;1.13;;
11139;SDS011;5624;49.388;11.350;2023-07-13T08:02:53;4.43;;;1.23;;
11139;SDS011;5624;49.388;11.350;2023-07-13T08:05:18;2.78;;;1.10;;
11139;SDS011;5624;49.388;11.350;2023-07-13T08:07:44;3.80;;;1.45;;
11139;SDS011;5624;49.388;11.350;2023-07-13T08:10:09;4.03;;;1.42;;
11139;SDS011;5624;49.388;11.350;2023-07-13T08:12:36;3.05;;;1.20;;
11139;SDS011;5624;49.388;11.350;2023-07-13T08:15:03;3.65;;;1.00;;
11139;SDS011;5624;49.388;11.350;2023-07-13T08:17:29;1.98;;;0.93;;
11139;SDS011;5624;49.388;11.350;2023-07-13T08:19:56;3.13;;;1.05;;
11139;SDS011;5624;49.388;11.350;2023-07-13T08:22:21;4.55;;;1.73;;
11139;SDS011;5624;49.388;11.350;2023-07-13T08:24:47;2.15;;;1.30;;
11139;SDS011;5624;49.388;11.350;2023-07-13T08:27:20;3.25;;;1.45;;
11139;SDS011;5624;49.388;11.350;2023-07-13T08:29:47;4.90;;;1.20;;
11139;SDS011;5624;49.388;11.350;2023-07-13T08:32:13;4.35;;;1.63;;
11139;SDS011;5624;49.388;11.350;2023-07-13T08:34:39;2.65;;;1.20;;
11139;SDS011;5624;49.388;11.350;2023-07-13T08:37:05;2.25;;;1.23;;
11139;SDS011;5624;49.388;11.350;2023-07-13T08:39:31;3.80;;;1.60;;
11139;SDS011;5624;49.388;11.350;2023-07-13T08:42:00;3.90;;;1.27;;
11139;SDS011;5624;49.388;11.350;2023-07-13T08:47:45;3.42;;;0.98;;
11139;SDS011;5624;49.388;11.350;2023-07-13T08:50:28;2.58;;;0.90;;
11139;SDS011;5624;49.388;11.350;2023-07-13T08:52:59;3.28;;;0.93;;
11139;SDS011;5624;49.388;11.350;2023-07-13T08:55:27;3.00;;;1.02;;
11139;SDS011;5624;49.388;11.350;2023-07-13T08:58:00;2.00;;;0.90;;
11139;SDS011;5624;49.388;11.350;2023-07-13T09:00:34;1.83;;;0.90;;
11139;SDS011;5624;49.388;11.350;2023-07-13T09:03:24;4.05;;;0.90;;
11139;SDS011;5624;49.388;11.350;2023-07-13T09:05:57;2.20;;;0.75;;
11139;SDS011;5624;49.388;11.350;2023-07-13T09:16:36;1.83;;;0.98;;
11139;SDS011;5624;49.388;11.350;2023-07-13T09:19:04;4.25;;;1.33;;
11139;SDS011;5624;49.388;11.350;2023-07-13T09:21:37;3.47;;;1.10;;
11139;SDS011;5624;49.388;11.350;2023-07-13T09:27:09;3.20;;;1.27;;
11139;SDS011;5624;49.388;11.350;2023-07-13T09:29:42;3.33;;;0.90;;
11139;SDS011;5624;49.388;11.350;2023-07-13T09:32:14;1.85;;;0.88;;
11139;SDS011;5624;49.388;11.350;2023-07-13T09:34:49;2.30;;;0.90;;
11139;SDS011;5624;49.388;11.350;2023-07-13T09:37:16;2.28;;;0.90;;
11139;SDS011;5624;49.388;11.350;2023-07-13T09:39:42;3.92;;;1.15;;
11139;SDS011;5624;49.388;11.350;2023-07-13T09:42:18;2.28;;;1.08;;
11139;SDS011;5624;49.388;11.350;2023-07-13T09:44:58;1.88;;;0.80;;
11139;SDS011;5624;49.388;11.350;2023-07-13T09:47:25;1.42;;;0.60;;
11139;SDS011;5624;49.388;11.350;2023-07-13T09:49:57;3.78;;;0.80;;
11139;SDS011;5624;49.388;11.350;2023-07-13T09:52:28;1.80;;;1.08;;
11139;SDS011;5624;49.388;11.350;2023-07-13T09:55:32;2.10;;;1.00;;
11139;SDS011;5624;49.388;11.350;2023-07-13T09:58:18;3.33;;;1.02;;
11139;SDS011;5624;49.388;11.350;2023-07-13T10:00:59;2.53;;;0.93;;
11139;SDS011;5624;49.388;11.350;2023-07-13T10:03:34;2.97;;;1.00;;
11139;SDS011;5624;49.388;11.350;2023-07-13T10:06:12;2.25;;;1.05;;
11139;SDS011;5624;49.388;11.350;2023-07-13T10:08:40;2.20;;;1.17;;
11139;SDS011;5624;49.388;11.350;2023-07-13T10:11:14;3.08;;;0.90;;
11139;SDS011;5624;49.388;11.350;2023-07-13T10:13:51;3.97;;;1.25;;
11139;SDS011;5624;49.388;11.350;2023-07-13T10:16:22;2.67;;;1.10;;
11139;SDS011;5624;49.388;11.350;2023-07-13T10:18:55;2.92;;;1.08;;
11139;SDS011;5624;49.388;11.350;2023-07-13T10:21:27;2.75;;;1.20;;
11139;SDS011;5624;49.388;11.350;2023-07-13T10:23:57;4.10;;;1.08;;
11139;SDS011;5624;49.388;11.350;2023-07-13T10:26:31;3.28;;;1.10;;
11139;SDS011;5624;49.388;11.350;2023-07-13T10:29:04;1.50;;;0.82;;
11139;SDS011;5624;49.388;11.350;2023-07-13T10:31:40;3.50;;;1.00;;
11139;SDS011;5624;49.388;11.350;2023-07-13T10:34:09;1.25;;;0.88;;
11139;SDS011;5624;49.388;11.350;2023-07-13T10:36:46;2.83;;;1.10;;
11139;SDS011;5624;49.388;11.350;2023-07-13T10:41:53;1.88;;;0.95;;
11139;SDS011;5624;49.388;11.350;2023-07-13T10:44:24;1.80;;;1.10;;
11139;SDS011;5624;49.388;11.350;2023-07-13T10:47:12;2.47;;;1.13;;
11139;SDS011;5624;49.388;11.350;2023-07-13T10:49:40;2.85;;;1.20;;
11139;SDS011;5624;49.388;11.350;2023-07-13T10:57:59;2.72;;;0.88;;
11139;SDS011;5624;49.388;11.350;2023-07-13T11:00:30;2.28;;;1.08;;
11139;SDS011;5624;49.388;11.350;2023-07-13T11:02:59;4.80;;;1.30;;
11139;SDS011;5624;49.388;11.350;2023-07-13T11:05:29;2.55;;;1.15;;
11139;SDS011;5624;49.388;11.350;2023-07-13T11:08:04;3.28;;;1.00;;
11139;SDS011;5624;49.388;11.350;2023-07-13T11:16:13;2.60;;;0.98;;
11139;SDS011;5624;49.388;11.350;2023-07-13T11:21:27;2.70;;;0.90;;
11139;SDS011;5624;49.388;11.350;2023-07-13T11:24:13;2.05;;;0.82;;
11139;SDS011;5624;49.388;11.350;2023-07-13T11:31:57;3.05;;;1.10;;
11139;SDS011;5624;49.388;11.350;2023-07-13T11:34:28;2.92;;;1.00;;
11139;SDS011;5624;49.388;11.350;2023-07-13T11:36:57;2.00;;;1.00;;
11139;SDS011;5624;49.388;11.350;2023-07-13T11:39:31;1.63;;;0.88;;
11139;SDS011;5624;49.388;11.350;2023-07-13T11:42:03;3.25;;;1.05;;
11139;SDS011;5624;49.388;11.350;2023-07-13T11:44:32;3.95;;;1.20;;
11139;SDS011;5624;49.388;11.350;2023-07-13T11:47:00;3.35;;;1.25;;
11139;SDS011;5624;49.388;11.350;2023-07-13T11:49:43;2.78;;;0.80;;
11139;SDS011;5624;49.388;11.350;2023-07-13T11:52:18;4.22;;;1.02;;
11139;SDS011;5624;49.388;11.350;2023-07-13T11:54:49;2.05;;;0.90;;
11139;SDS011;5624;49.388;11.350;2023-07-13T11:57:24;2.20;;;0.73;;
11139;SDS011;5624;49.388;11.350;2023-07-13T12:00:00;2.53;;;1.02;;
11139;SDS011;5624;49.388;11.350;2023-07-13T12:02:42;2.95;;;1.13;;
11139;SDS011;5624;49.388;11.350;2023-07-13T12:05:10;3.45;;;1.05;;
11139;SDS011;5624;49.388;11.350;2023-07-13T12:07:39;5.63;;;1.20;;
11139;SDS011;5624;49.388;11.350;2023-07-13T12:12:34;4.63;;;1.50;;
11139;SDS011;5624;49.388;11.350;2023-07-13T12:15:05;2.90;;;1.17;;
11139;SDS011;5624;49.388;11.350;2023-07-13T12:17:32;3.25;;;1.08;;
11139;SDS011;5624;49.388;11.350;2023-07-13T12:20:00;3.05;;;1.08;;
11139;SDS011;5624;49.388;11.350;2023-07-13T12:22:35;4.47;;;1.05;;
11139;SDS011;5624;49.388;11.350;2023-07-13T12:25:01;2.05;;;0.80;;
11139;SDS011;5624;49.388;11.350;2023-07-13T12:27:27;1.40;;;0.90;;
11139;SDS011;5624;49.388;11.350;2023-07-13T12:29:58;2.83;;;1.00;;
11139;SDS011;5624;49.388;11.350;2023-07-13T12:32:25;2.67;;;0.93;;
11139;SDS011;5624;49.388;11.350;2023-07-13T12:34:56;2.33;;;0.90;;
11139;SDS011;5624;49.388;11.350;2023-07-13T12:37:44;3.13;;;1.00;;
11139;SDS011;5624;49.388;11.350;2023-07-13T12:40:17;3.15;;;1.02;;
11139;SDS011;5624;49.388;11.350;2023-07-13T12:42:47;3.03;;;1.10;;
11139;SDS011;5624;49.388;11.350;2023-07-13T12:47:47;3.30;;;1.30;;
11139;SDS011;5624;49.388;11.350;2023-07-13T12:50:15;2.75;;;0.90;;
11139;SDS011;5624;49.388;11.350;2023-07-13T12:52:43;2.75;;;1.10;;
11139;SDS011;5624;49.388;11.350;2023-07-13T12:55:16;2.22;;;0.80;;
11139;SDS011;5624;49.388;11.350;2023-07-13T12:57:51;3.45;;;0.85;;
11139;SDS011;5624;49.388;11.350;2023-07-13T13:00:27;3.88;;;1.13;;
11139;SDS011;5624;49.388;11.350;2023-07-13T13:03:34;2.60;;;1.05;;
11139;SDS011;5624;49.388;11.350;2023-07-13T13:06:07;3.47;;;1.25;;
11139;SDS011;5624;49.388;11.350;2023-07-13T13:08:52;3.95;;;1.50;;
11139;SDS011;5624;49.388;11.350;2023-07-13T13:11:20;2.15;;;0.90;;
11139;SDS011;5624;49.388;11.350;2023-07-13T13:13:48;1.85;;;0.85;;
11139;SDS011;5624;49.388;11.350;2023-07-13T13:16:17;4.18;;;1.35;;
11139;SDS011;5624;49.388;11.350;2023-07-13T13:18:55;3.53;;;1.38;;
11139;SDS011;5624;49.388;11.350;2023-07-13T13:21:24;4.38;;;0.98;;
11139;SDS011;5624;49.388;11.350;2023-07-13T13:23:51;2.13;;;1.13;;
11139;SDS011;5624;49.388;11.350;2023-07-13T13:26:18;2.38;;;0.95;;
11139;SDS011;5624;49.388;11.350;2023-07-13T13:28:44;5.80;;;1.80;;
11139;SDS011;5624;49.388;11.350;2023-07-13T13:31:12;3.88;;;1.30;;
11139;SDS011;5624;49.388;11.350;2023-07-13T13:33:44;1.15;;;0.82;;
11139;SDS011;5624;49.388;11.350;2023-07-13T13:36:18;5.78;;;1.50;;
11139;SDS011;5624;49.388;11.350;2023-07-13T13:38:45;2.15;;;1.15;;
11139;SDS011;5624;49.388;11.350;2023-07-13T13:41:13;2.80;;;1.10;;
11139;SDS011;5624;49.388;11.350;2023-07-13T13:43:42;4.47;;;1.70;;
11139;SDS011;5624;49.388;11.350;2023-07-13T13:46:18;3.72;;;1.23;;
11139;SDS011;5624;49.388;11.350;2023-07-13T13:48:47;3.42;;;1.20;;
11139;SDS011;5624;49.388;11.350;2023-07-13T13:53:41;1.52;;;1.00;;
11139;SDS011;5624;49.388;11.350;2023-07-13T13:56:07;3.40;;;1.10;;
11139;SDS011;5624;49.388;11.350;2023-07-13T13:58:33;3.05;;;1.40;;
11139;SDS011;5624;49.388;11.350;2023-07-13T14:00:59;1.88;;;0.82;;
11139;SDS011;5624;49.388;11.350;2023-07-13T14:03:25;1.63;;;0.93;;
11139;SDS011;5624;49.388;11.350;2023-07-13T14:05:53;3.53;;;1.17;;
11139;SDS011;5624;49.388;11.350;2023-07-13T14:08:19;3.63;;;1.10;;
11139;SDS011;5624;49.388;11.350;2023-07-13T14:10:46;3.60;;;1.25;;
11139;SDS011;5624;49.388;11.350;2023-07-13T14:13:19;2.78;;;1.25;;
11139;SDS011;5624;49.388;11.350;2023-07-13T14:15:59;1.98;;;1.25;;
11139;SDS011;5624;49.388;11.350;2023-07-13T14:18:25;5.68;;;1.27;;
11139;SDS011;5624;49.388;11.350;2023-07-13T14:20:50;3.08;;;1.15;;
11139;SDS011;5624;49.388;11.350;2023-07-13T14:23:17;1.85;;;0.93;;
11139;SDS011;5624;49.388;11.350;2023-07-13T14:25:43;2.80;;;1.27;;
11139;SDS011;5624;49.388;11.350;2023-07-13T14:28:23;2.83;;;1.20;;
11139;SDS011;5624;49.388;11.350;2023-07-13T14:30:50;2.13;;;1.20;;
11139;SDS011;5624;49.388;11.350;2023-07-13T14:33:17;3.33;;;1.40;;
11139;SDS011;5624;49.388;11.350;2023-07-13T14:35:42;2.15;;;1.05;;
11139;SDS011;5624;49.388;11.350;2023-07-13T14:38:12;2.15;;;1.10;;
11139;SDS011;5624;49.388;11.350;2023-07-13T14:40:41;2.60;;;1.15;;
11139;SDS011;5624;49.388;11.350;2023-07-13T14:43:11;5.35;;;1.02;;
11139;SDS011;5624;49.388;11.350;2023-07-13T14:45:39;2.83;;;1.17;;
11139;SDS011;5624;49.388;11.350;2023-07-13T14:48:13;4.38;;;1.63;;
11139;SDS011;5624;49.388;11.350;2023-07-13T14:50:40;4.00;;;1.38;;
11139;SDS011;5624;49.388;11.350;2023-07-13T14:53:09;3.75;;;1.33;;
11139;SDS011;5624;49.388;11.350;2023-07-13T14:55:36;4.30;;;1.27;;
11139;SDS011;5624;49.388;11.350;2023-07-13T14:58:01;3.15;;;1.10;;
11139;SDS011;5624;49.388;11.350;2023-07-13T15:00:27;2.85;;;1.08;;
11139;SDS011;5624;49.388;11.350;2023-07-13T15:02:55;3.13;;;1.20;;
11139;SDS011;5624;49.388;11.350;2023-07-13T15:05:27;3.85;;;1.50;;
11139;SDS011;5624;49.388;11.350;2023-07-13T15:07:57;2.25;;;1.35;;
11139;SDS011;5624;49.388;11.350;2023-07-13T15:10:27;3.25;;;1.30;;
11139;SDS011;5624;49.388;11.350;2023-07-13T15:13:27;4.63;;;1.48;;
11139;SDS011;5624;49.388;11.350;2023-07-13T15:15:49;6.25;;;1.20;;
11139;SDS011;5624;49.388;11.350;2023-07-13T15:18:20;3.03;;;1.35;;
11139;SDS011;5624;49.388;11.350;2023-07-13T15:20:48;3.45;;;1.20;;
11139;SDS011;5624;49.388;11.350;2023-07-13T15:23:16;2.67;;;1.13;;
11139;SDS011;5624;49.388;11.350;2023-07-13T15:25:42;3.17;;;1.63;;
11139;SDS011;5624;49.388;11.350;2023-07-13T15:28:11;3.20;;;0.90;;
11139;SDS011;5624;49.388;11.350;2023-07-13T15:33:15;4.28;;;0.93;;
11139;SDS011;5624;49.388;11.350;2023-07-13T15:35:44;1.65;;;0.93;;
11139;SDS011;5624;49.388;11.350;2023-07-13T15:38:15;5.15;;;1.00;;
11139;SDS011;5624;49.388;11.350;2023-07-13T15:40:43;3.22;;;1.10;;
11139;SDS011;5624;49.388;11.350;2023-07-13T15:43:10;1.95;;;1.00;;
11139;SDS011;5624;49.388;11.350;2023-07-13T15:45:37;5.82;;;1.27;;
11139;SDS011;5624;49.388;11.350;2023-07-13T15:48:08;3.15;;;1.00;;